sensor_id;sensor_type;location;lat;lon;timestamp;P1;durP1;ratioP1;P2;durP2;ratioP2
11135;SDS011;5622;50.840;4.948;2022-11-04T00:01:57;3.30;;;2.20;;
11135;SDS011;5622;50.840;4.948;2022-11-04T00:04:26;3.57;;;2.20;;
11135;SDS011;5622;50.840;4.948;2022-11-04T00:06:54;4.50;;;2.20;;
11135;SDS011;5622;50.840;4.948;2022-11-04T00:09:24;7.23;;;2.50;;
11135;SDS011;5622;50.840;4.948;2022-11-04T00:11:52;5.30;;;2.83;;
11135;SDS011;5622;50.840;4.948;2022-11-04T00:14:36;5.13;;;2.20;;
11135;SDS011;5622;50.840;4.948;2022-11-04T00:17:04;8.10;;;2.87;;
11135;SDS011;5622;50.840;4.948;2022-11-04T00:19:49;3.27;;;2.40;;
11135;SDS011;5622;50.840;4.948;2022-11-04T00:22:35;4.57;;;2.40;;
11135;SDS011;5622;50.840;4.948;2022-11-04T00:25:22;4.83;;;2.30;;
11135;SDS011;5622;50.840;4.948;2022-11-04T00:28:08;6.50;;;2.40;;
11135;SDS011;5622;50.840;4.948;2022-11-04T00:30:55;5.80;;;2.30;;
11135;SDS011;5622;50.840;4.948;2022-11-04T00:33:43;6.13;;;2.70;;
11135;SDS011;5622;50.840;4.948;2022-11-04T00:36:09;5.70;;;2.10;;
11135;SDS011;5622;50.840;4.948;2022-11-04T00:38:36;5.03;;;2.20;;
11135;SDS011;5622;50.840;4.948;2022-11-04T00:41:05;6.80;;;2.60;;
11135;SDS011;5622;50.840;4.948;2022-11-04T00:43:50;6.73;;;2.77;;
11135;SDS011;5622;50.840;4.948;2022-11-04T00:46:17;7.47;;;2.77;;
11135;SDS011;5622;50.840;4.948;2022-11-04T00:48:44;7.63;;;2.70;;
11135;SDS011;5622;50.840;4.948;2022-11-04T00:51:12;7.73;;;2.63;;
11135;SDS011;5622;50.840;4.948;2022-11-04T00:53:39;8.80;;;2.50;;
11135;SDS011;5622;50.840;4.948;2022-11-04T00:56:08;7.60;;;3.10;;
11135;SDS011;5622;50.840;4.948;2022-11-04T00:58:35;3.63;;;2.30;;
11135;SDS011;5622;50.840;4.948;2022-11-04T01:01:05;5.77;;;2.60;;
11135;SDS011;5622;50.840;4.948;2022-11-04T01:03:33;9.73;;;2.80;;
11135;SDS011;5622;50.840;4.948;2022-11-04T01:06:01;2.33;;;2.10;;
11135;SDS011;5622;50.840;4.948;2022-11-04T01:08:28;6.87;;;2.43;;
11135;SDS011;5622;50.840;4.948;2022-11-04T01:10:55;8.40;;;2.50;;
11135;SDS011;5622;50.840;4.948;2022-11-04T01:13:27;9.77;;;2.50;;
11135;SDS011;5622;50.840;4.948;2022-11-04T01:15:56;6.00;;;2.10;;
11135;SDS011;5622;50.840;4.948;2022-11-04T01:18:23;3.80;;;2.20;;
11135;SDS011;5622;50.840;4.948;2022-11-04T01:20:51;6.73;;;2.10;;
11135;SDS011;5622;50.840;4.948;2022-11-04T01:23:18;6.80;;;2.70;;
11135;SDS011;5622;50.840;4.948;2022-11-04T01:25:45;4.90;;;2.10;;
11135;SDS011;5622;50.840;4.948;2022-11-04T01:28:12;7.37;;;1.93;;
11135;SDS011;5622;50.840;4.948;2022-11-04T01:30:41;8.60;;;2.67;;
11135;SDS011;5622;50.840;4.948;2022-11-04T01:33:08;5.13;;;2.17;;
11135;SDS011;5622;50.840;4.948;2022-11-04T01:35:35;5.77;;;1.93;;
11135;SDS011;5622;50.840;4.948;2022-11-04T01:38:02;9.67;;;2.20;;
11135;SDS011;5622;50.840;4.948;2022-11-04T01:40:29;5.03;;;2.00;;
11135;SDS011;5622;50.840;4.948;2022-11-04T01:43:01;7.53;;;2.13;;
11135;SDS011;5622;50.840;4.948;2022-11-04T01:45:28;4.87;;;1.80;;
11135;SDS011;5622;50.840;4.948;2022-11-04T01:47:58;5.90;;;1.80;;
11135;SDS011;5622;50.840;4.948;2022-11-04T01:50:29;7.00;;;1.90;;
11135;SDS011;5622;50.840;4.948;2022-11-04T01:52:59;5.63;;;2.20;;
11135;SDS011;5622;50.840;4.948;2022-11-04T01:55:32;7.77;;;2.40;;
11135;SDS011;5622;50.840;4.948;2022-11-04T01:58:03;6.60;;;2.57;;
11135;SDS011;5622;50.840;4.948;2022-11-04T02:00:34;6.73;;;2.50;;
11135;SDS011;5622;50.840;4.948;2022-11-04T02:03:06;8.70;;;2.53;;
11135;SDS011;5622;50.840;4.948;2022-11-04T02:05:37;8.10;;;2.60;;
11135;SDS011;5622;50.840;4.948;2022-11-04T02:08:05;8.43;;;2.70;;
11135;SDS011;5622;50.840;4.948;2022-11-04T02:10:33;8.30;;;3.07;;
11135;SDS011;5622;50.840;4.948;2022-11-04T02:13:02;7.37;;;2.87;;
11135;SDS011;5622;50.840;4.948;2022-11-04T02:15:32;7.77;;;3.27;;
11135;SDS011;5622;50.840;4.948;2022-11-04T02:18:09;3.67;;;2.77;;
11135;SDS011;5622;50.840;4.948;2022-11-04T02:23:57;6.37;;;2.77;;
11135;SDS011;5622;50.840;4.948;2022-11-04T02:30:02;11.77;;;2.63;;
11135;SDS011;5622;50.840;4.948;2022-11-04T02:32:38;6.43;;;2.60;;
11135;SDS011;5622;50.840;4.948;2022-11-04T02:35:11;5.17;;;2.53;;
11135;SDS011;5622;50.840;4.948;2022-11-04T02:37:48;7.23;;;3.17;;
11135;SDS011;5622;50.840;4.948;2022-11-04T02:40:23;5.67;;;3.07;;
11135;SDS011;5622;50.840;4.948;2022-11-04T02:42:57;7.03;;;3.20;;
11135;SDS011;5622;50.840;4.948;2022-11-04T02:45:32;5.50;;;2.77;;
11135;SDS011;5622;50.840;4.948;2022-11-04T02:48:05;7.03;;;2.70;;
11135;SDS011;5622;50.840;4.948;2022-11-04T02:50:38;3.23;;;2.40;;
11135;SDS011;5622;50.840;4.948;2022-11-04T02:53:09;9.63;;;3.70;;
11135;SDS011;5622;50.840;4.948;2022-11-04T02:55:41;5.40;;;2.60;;
11135;SDS011;5622;50.840;4.948;2022-11-04T02:58:12;7.10;;;2.93;;
11135;SDS011;5622;50.840;4.948;2022-11-04T03:00:44;7.17;;;2.97;;
11135;SDS011;5622;50.840;4.948;2022-11-04T03:03:16;6.13;;;3.47;;
11135;SDS011;5622;50.840;4.948;2022-11-04T03:05:48;7.60;;;3.10;;
11135;SDS011;5622;50.840;4.948;2022-11-04T03:08:19;8.90;;;3.30;;
11135;SDS011;5622;50.840;4.948;2022-11-04T03:10:50;6.30;;;3.00;;
11135;SDS011;5622;50.840;4.948;2022-11-04T03:13:20;8.60;;;3.03;;
11135;SDS011;5622;50.840;4.948;2022-11-04T03:15:55;13.70;;;3.10;;
11135;SDS011;5622;50.840;4.948;2022-11-04T03:18:28;7.90;;;3.10;;
11135;SDS011;5622;50.840;4.948;2022-11-04T03:21:01;6.10;;;2.83;;
11135;SDS011;5622;50.840;4.948;2022-11-04T03:23:30;7.40;;;3.00;;
11135;SDS011;5622;50.840;4.948;2022-11-04T03:26:00;4.83;;;2.70;;
11135;SDS011;5622;50.840;4.948;2022-11-04T03:28:37;4.93;;;2.47;;
11135;SDS011;5622;50.840;4.948;2022-11-04T03:31:12;5.37;;;3.40;;
11135;SDS011;5622;50.840;4.948;2022-11-04T03:33:46;8.10;;;3.33;;
11135;SDS011;5622;50.840;4.948;2022-11-04T03:36:15;6.70;;;3.00;;
11135;SDS011;5622;50.840;4.948;2022-11-04T03:38:43;8.60;;;3.03;;
11135;SDS011;5622;50.840;4.948;2022-11-04T03:41:12;8.10;;;3.10;;
11135;SDS011;5622;50.840;4.948;2022-11-04T03:43:42;7.87;;;2.80;;
11135;SDS011;5622;50.840;4.948;2022-11-04T03:46:09;4.03;;;2.33;;
11135;SDS011;5622;50.840;4.948;2022-11-04T03:48:38;4.60;;;2.97;;
11135;SDS011;5622;50.840;4.948;2022-11-04T03:51:09;4.90;;;2.30;;
11135;SDS011;5622;50.840;4.948;2022-11-04T03:53:36;9.10;;;2.87;;
11135;SDS011;5622;50.840;4.948;2022-11-04T03:56:07;4.60;;;2.40;;
11135;SDS011;5622;50.840;4.948;2022-11-04T03:59:11;7.43;;;3.20;;
11135;SDS011;5622;50.840;4.948;2022-11-04T04:01:55;9.30;;;3.27;;
11135;SDS011;5622;50.840;4.948;2022-11-04T04:04:26;7.33;;;2.87;;
11135;SDS011;5622;50.840;4.948;2022-11-04T04:06:56;8.53;;;2.90;;
11135;SDS011;5622;50.840;4.948;2022-11-04T04:09:29;5.93;;;3.23;;
11135;SDS011;5622;50.840;4.948;2022-11-04T04:12:01;11.17;;;3.27;;
11135;SDS011;5622;50.840;4.948;2022-11-04T04:14:33;7.83;;;3.37;;
11135;SDS011;5622;50.840;4.948;2022-11-04T04:17:10;5.03;;;3.10;;
11135;SDS011;5622;50.840;4.948;2022-11-04T04:19:45;6.43;;;3.03;;
11135;SDS011;5622;50.840;4.948;2022-11-04T04:22:17;9.93;;;3.57;;
11135;SDS011;5622;50.840;4.948;2022-11-04T04:24:48;6.63;;;2.77;;
11135;SDS011;5622;50.840;4.948;2022-11-04T04:27:35;6.00;;;3.07;;
11135;SDS011;5622;50.840;4.948;2022-11-04T04:30:05;8.03;;;3.10;;
11135;SDS011;5622;50.840;4.948;2022-11-04T04:32:36;6.13;;;2.97;;
11135;SDS011;5622;50.840;4.948;2022-11-04T04:35:06;4.00;;;2.67;;
11135;SDS011;5622;50.840;4.948;2022-11-04T04:38:04;5.20;;;2.83;;
11135;SDS011;5622;50.840;4.948;2022-11-04T04:40:52;7.90;;;2.37;;
11135;SDS011;5622;50.840;4.948;2022-11-04T04:43:42;5.43;;;2.80;;
11135;SDS011;5622;50.840;4.948;2022-11-04T04:46:26;6.30;;;2.67;;
11135;SDS011;5622;50.840;4.948;2022-11-04T04:48:55;5.13;;;2.90;;
11135;SDS011;5622;50.840;4.948;2022-11-04T04:51:29;8.27;;;2.97;;
11135;SDS011;5622;50.840;4.948;2022-11-04T04:53:57;7.70;;;2.80;;
11135;SDS011;5622;50.840;4.948;2022-11-04T04:56:24;11.07;;;2.90;;
11135;SDS011;5622;50.840;4.948;2022-11-04T04:58:51;7.50;;;2.77;;
11135;SDS011;5622;50.840;4.948;2022-11-04T05:01:18;7.03;;;2.83;;
11135;SDS011;5622;50.840;4.948;2022-11-04T05:03:45;3.93;;;2.90;;
11135;SDS011;5622;50.840;4.948;2022-11-04T05:06:14;6.53;;;2.90;;
11135;SDS011;5622;50.840;4.948;2022-11-04T05:08:41;7.70;;;2.80;;
11135;SDS011;5622;50.840;4.948;2022-11-04T05:11:08;5.80;;;2.50;;
11135;SDS011;5622;50.840;4.948;2022-11-04T05:13:35;6.83;;;3.57;;
11135;SDS011;5622;50.840;4.948;2022-11-04T05:16:02;6.40;;;2.83;;
11135;SDS011;5622;50.840;4.948;2022-11-04T05:18:31;7.50;;;2.90;;
11135;SDS011;5622;50.840;4.948;2022-11-04T05:21:01;5.30;;;2.47;;
11135;SDS011;5622;50.840;4.948;2022-11-04T05:23:30;6.17;;;3.10;;
11135;SDS011;5622;50.840;4.948;2022-11-04T05:25:57;5.83;;;2.70;;
11135;SDS011;5622;50.840;4.948;2022-11-04T05:28:24;7.77;;;2.90;;
11135;SDS011;5622;50.840;4.948;2022-11-04T05:30:51;8.83;;;2.73;;
11135;SDS011;5622;50.840;4.948;2022-11-04T05:33:19;6.90;;;2.33;;
11135;SDS011;5622;50.840;4.948;2022-11-04T05:35:46;6.70;;;2.50;;
11135;SDS011;5622;50.840;4.948;2022-11-04T05:38:13;7.73;;;2.70;;
11135;SDS011;5622;50.840;4.948;2022-11-04T05:40:41;8.73;;;2.73;;
11135;SDS011;5622;50.840;4.948;2022-11-04T05:43:08;8.53;;;2.60;;
11135;SDS011;5622;50.840;4.948;2022-11-04T05:45:35;6.20;;;2.50;;
11135;SDS011;5622;50.840;4.948;2022-11-04T05:48:03;6.53;;;2.60;;
11135;SDS011;5622;50.840;4.948;2022-11-04T05:50:31;8.73;;;2.83;;
11135;SDS011;5622;50.840;4.948;2022-11-04T05:52:59;11.30;;;3.33;;
11135;SDS011;5622;50.840;4.948;2022-11-04T05:58:50;9.27;;;2.80;;
11135;SDS011;5622;50.840;4.948;2022-11-04T06:01:28;9.10;;;2.90;;
11135;SDS011;5622;50.840;4.948;2022-11-04T06:03:57;8.47;;;6.07;;
11135;SDS011;5622;50.840;4.948;2022-11-04T06:06:26;11.80;;;6.43;;
11135;SDS011;5622;50.840;4.948;2022-11-04T06:08:54;6.33;;;3.13;;
11135;SDS011;5622;50.840;4.948;2022-11-04T06:11:22;6.53;;;3.10;;
11135;SDS011;5622;50.840;4.948;2022-11-04T06:13:52;5.00;;;2.60;;
11135;SDS011;5622;50.840;4.948;2022-11-04T06:16:19;8.40;;;2.73;;
11135;SDS011;5622;50.840;4.948;2022-11-04T06:18:47;7.30;;;2.47;;
11135;SDS011;5622;50.840;4.948;2022-11-04T06:21:19;12.90;;;2.90;;
11135;SDS011;5622;50.840;4.948;2022-11-04T06:23:50;5.97;;;3.23;;
11135;SDS011;5622;50.840;4.948;2022-11-04T06:26:18;6.77;;;3.00;;
11135;SDS011;5622;50.840;4.948;2022-11-04T06:28:46;7.53;;;3.37;;
11135;SDS011;5622;50.840;4.948;2022-11-04T06:31:14;12.80;;;3.43;;
11135;SDS011;5622;50.840;4.948;2022-11-04T06:33:42;9.00;;;3.70;;
11135;SDS011;5622;50.840;4.948;2022-11-04T06:36:10;7.17;;;3.23;;
11135;SDS011;5622;50.840;4.948;2022-11-04T06:38:39;8.93;;;3.97;;
11135;SDS011;5622;50.840;4.948;2022-11-04T06:41:08;9.23;;;3.67;;
11135;SDS011;5622;50.840;4.948;2022-11-04T06:43:37;9.73;;;3.67;;
11135;SDS011;5622;50.840;4.948;2022-11-04T06:46:05;8.23;;;3.30;;
11135;SDS011;5622;50.840;4.948;2022-11-04T06:48:33;5.10;;;3.00;;
11135;SDS011;5622;50.840;4.948;2022-11-04T06:51:01;9.60;;;2.53;;
11135;SDS011;5622;50.840;4.948;2022-11-04T06:53:28;7.47;;;2.80;;
11135;SDS011;5622;50.840;4.948;2022-11-04T06:56:00;8.03;;;2.90;;
11135;SDS011;5622;50.840;4.948;2022-11-04T06:58:30;6.27;;;3.00;;
11135;SDS011;5622;50.840;4.948;2022-11-04T07:00:57;8.13;;;3.17;;
11135;SDS011;5622;50.840;4.948;2022-11-04T07:03:24;5.90;;;2.67;;
11135;SDS011;5622;50.840;4.948;2022-11-04T07:05:52;4.40;;;2.80;;
11135;SDS011;5622;50.840;4.948;2022-11-04T07:08:19;5.70;;;2.83;;
11135;SDS011;5622;50.840;4.948;2022-11-04T07:10:47;5.10;;;2.77;;
11135;SDS011;5622;50.840;4.948;2022-11-04T07:13:14;8.07;;;2.87;;
11135;SDS011;5622;50.840;4.948;2022-11-04T07:15:41;5.40;;;2.63;;
11135;SDS011;5622;50.840;4.948;2022-11-04T07:18:09;5.63;;;2.67;;
11135;SDS011;5622;50.840;4.948;2022-11-04T07:20:36;6.00;;;2.83;;
11135;SDS011;5622;50.840;4.948;2022-11-04T07:23:05;10.97;;;2.83;;
11135;SDS011;5622;50.840;4.948;2022-11-04T07:25:32;5.27;;;3.00;;
11135;SDS011;5622;50.840;4.948;2022-11-04T07:27:59;7.00;;;3.30;;
11135;SDS011;5622;50.840;4.948;2022-11-04T07:30:26;6.63;;;2.80;;
11135;SDS011;5622;50.840;4.948;2022-11-04T07:32:53;6.37;;;3.20;;
11135;SDS011;5622;50.840;4.948;2022-11-04T07:35:20;5.73;;;2.57;;
11135;SDS011;5622;50.840;4.948;2022-11-04T07:37:47;8.20;;;3.40;;
11135;SDS011;5622;50.840;4.948;2022-11-04T07:40:16;7.87;;;3.10;;
11135;SDS011;5622;50.840;4.948;2022-11-04T07:42:43;7.40;;;2.77;;
11135;SDS011;5622;50.840;4.948;2022-11-04T07:45:10;8.03;;;3.30;;
11135;SDS011;5622;50.840;4.948;2022-11-04T07:47:38;8.57;;;3.03;;
11135;SDS011;5622;50.840;4.948;2022-11-04T07:50:05;4.07;;;3.20;;
11135;SDS011;5622;50.840;4.948;2022-11-04T07:52:32;9.53;;;3.17;;
11135;SDS011;5622;50.840;4.948;2022-11-04T07:54:59;7.63;;;3.20;;
11135;SDS011;5622;50.840;4.948;2022-11-04T07:57:28;10.23;;;3.43;;
11135;SDS011;5622;50.840;4.948;2022-11-04T07:59:55;8.30;;;3.47;;
11135;SDS011;5622;50.840;4.948;2022-11-04T08:02:22;8.87;;;3.93;;
11135;SDS011;5622;50.840;4.948;2022-11-04T08:04:49;5.60;;;2.90;;
11135;SDS011;5622;50.840;4.948;2022-11-04T08:07:17;5.53;;;3.37;;
11135;SDS011;5622;50.840;4.948;2022-11-04T08:09:44;9.50;;;3.00;;
11135;SDS011;5622;50.840;4.948;2022-11-04T08:12:11;7.60;;;3.67;;
11135;SDS011;5622;50.840;4.948;2022-11-04T08:14:39;9.47;;;3.73;;
11135;SDS011;5622;50.840;4.948;2022-11-04T08:17:06;5.40;;;2.67;;
11135;SDS011;5622;50.840;4.948;2022-11-04T08:19:34;9.63;;;2.77;;
11135;SDS011;5622;50.840;4.948;2022-11-04T08:22:01;7.63;;;2.83;;
11135;SDS011;5622;50.840;4.948;2022-11-04T08:24:28;10.37;;;3.17;;
11135;SDS011;5622;50.840;4.948;2022-11-04T08:26:55;7.33;;;3.20;;
11135;SDS011;5622;50.840;4.948;2022-11-04T08:29:22;6.87;;;3.10;;
11135;SDS011;5622;50.840;4.948;2022-11-04T08:31:50;8.00;;;3.60;;
11135;SDS011;5622;50.840;4.948;2022-11-04T08:34:17;7.30;;;3.20;;
11135;SDS011;5622;50.840;4.948;2022-11-04T08:36:45;7.57;;;2.83;;
11135;SDS011;5622;50.840;4.948;2022-11-04T08:39:12;5.30;;;2.93;;
11135;SDS011;5622;50.840;4.948;2022-11-04T08:41:41;4.80;;;2.80;;
11135;SDS011;5622;50.840;4.948;2022-11-04T08:44:09;6.47;;;2.83;;
11135;SDS011;5622;50.840;4.948;2022-11-04T08:46:38;5.60;;;2.63;;
11135;SDS011;5622;50.840;4.948;2022-11-04T08:49:08;4.50;;;2.43;;
11135;SDS011;5622;50.840;4.948;2022-11-04T08:51:36;12.03;;;3.10;;
11135;SDS011;5622;50.840;4.948;2022-11-04T08:54:05;7.80;;;3.23;;
11135;SDS011;5622;50.840;4.948;2022-11-04T08:56:33;9.20;;;3.37;;
11135;SDS011;5622;50.840;4.948;2022-11-04T08:59:03;8.20;;;3.70;;
11135;SDS011;5622;50.840;4.948;2022-11-04T09:01:31;5.17;;;2.90;;
11135;SDS011;5622;50.840;4.948;2022-11-04T09:03:59;4.93;;;2.57;;
11135;SDS011;5622;50.840;4.948;2022-11-04T09:06:28;4.93;;;3.20;;
11135;SDS011;5622;50.840;4.948;2022-11-04T09:08:58;5.67;;;3.07;;
11135;SDS011;5622;50.840;4.948;2022-11-04T09:11:28;9.23;;;3.03;;
11135;SDS011;5622;50.840;4.948;2022-11-04T09:13:57;8.00;;;2.80;;
11135;SDS011;5622;50.840;4.948;2022-11-04T09:16:26;6.30;;;2.43;;
11135;SDS011;5622;50.840;4.948;2022-11-04T09:18:55;6.77;;;2.80;;
11135;SDS011;5622;50.840;4.948;2022-11-04T09:21:23;7.77;;;3.00;;
11135;SDS011;5622;50.840;4.948;2022-11-04T09:23:52;6.63;;;3.60;;
11135;SDS011;5622;50.840;4.948;2022-11-04T09:26:20;8.63;;;3.30;;
11135;SDS011;5622;50.840;4.948;2022-11-04T09:28:51;6.23;;;3.30;;
11135;SDS011;5622;50.840;4.948;2022-11-04T09:31:19;6.03;;;3.50;;
11135;SDS011;5622;50.840;4.948;2022-11-04T09:33:47;12.23;;;3.67;;
11135;SDS011;5622;50.840;4.948;2022-11-04T09:36:14;6.63;;;3.03;;
11135;SDS011;5622;50.840;4.948;2022-11-04T09:38:42;7.13;;;3.60;;
11135;SDS011;5622;50.840;4.948;2022-11-04T09:44:17;7.57;;;4.70;;
11135;SDS011;5622;50.840;4.948;2022-11-04T09:46:52;7.40;;;3.87;;
11135;SDS011;5622;50.840;4.948;2022-11-04T09:49:22;3.77;;;3.37;;
11135;SDS011;5622;50.840;4.948;2022-11-04T09:51:52;5.50;;;3.43;;
11135;SDS011;5622;50.840;4.948;2022-11-04T09:54:22;5.63;;;3.37;;
11135;SDS011;5622;50.840;4.948;2022-11-04T09:56:52;5.70;;;3.63;;
11135;SDS011;5622;50.840;4.948;2022-11-04T09:59:26;9.90;;;4.23;;
11135;SDS011;5622;50.840;4.948;2022-11-04T10:02:02;9.40;;;4.33;;
11135;SDS011;5622;50.840;4.948;2022-11-04T10:04:48;6.50;;;3.53;;
11135;SDS011;5622;50.840;4.948;2022-11-04T10:07:26;7.17;;;3.30;;
11135;SDS011;5622;50.840;4.948;2022-11-04T10:10:11;8.73;;;3.50;;
11135;SDS011;5622;50.840;4.948;2022-11-04T10:12:49;7.60;;;3.67;;
11135;SDS011;5622;50.840;4.948;2022-11-04T10:15:33;7.17;;;3.80;;
11135;SDS011;5622;50.840;4.948;2022-11-04T10:18:12;11.87;;;3.70;;
11135;SDS011;5622;50.840;4.948;2022-11-04T10:20:51;6.60;;;3.23;;
11135;SDS011;5622;50.840;4.948;2022-11-04T10:23:27;10.93;;;3.60;;
11135;SDS011;5622;50.840;4.948;2022-11-04T10:26:00;9.40;;;3.40;;
11135;SDS011;5622;50.840;4.948;2022-11-04T10:28:36;9.43;;;4.93;;
11135;SDS011;5622;50.840;4.948;2022-11-04T10:31:06;11.13;;;6.30;;
11135;SDS011;5622;50.840;4.948;2022-11-04T10:33:38;19.60;;;17.13;;
11135;SDS011;5622;50.840;4.948;2022-11-04T10:36:09;14.90;;;8.03;;
11135;SDS011;5622;50.840;4.948;2022-11-04T10:38:37;9.10;;;4.83;;
11135;SDS011;5622;50.840;4.948;2022-11-04T10:41:14;11.93;;;6.13;;
11135;SDS011;5622;50.840;4.948;2022-11-04T10:43:49;10.10;;;6.73;;
11135;SDS011;5622;50.840;4.948;2022-11-04T10:46:23;8.83;;;3.10;;
11135;SDS011;5622;50.840;4.948;2022-11-04T10:49:21;13.87;;;4.63;;
11135;SDS011;5622;50.840;4.948;2022-11-04T10:52:09;9.03;;;3.87;;
11135;SDS011;5622;50.840;4.948;2022-11-04T10:54:38;11.93;;;5.30;;
11135;SDS011;5622;50.840;4.948;2022-11-04T10:57:07;17.77;;;10.10;;
11135;SDS011;5622;50.840;4.948;2022-11-04T10:59:41;26.90;;;18.33;;
11135;SDS011;5622;50.840;4.948;2022-11-04T11:02:15;13.93;;;6.83;;
11135;SDS011;5622;50.840;4.948;2022-11-04T11:04:43;21.07;;;16.20;;
11135;SDS011;5622;50.840;4.948;2022-11-04T11:07:12;19.17;;;14.53;;
11135;SDS011;5622;50.840;4.948;2022-11-04T11:09:50;17.87;;;15.70;;
11135;SDS011;5622;50.840;4.948;2022-11-04T11:12:21;11.93;;;5.50;;
11135;SDS011;5622;50.840;4.948;2022-11-04T11:14:56;10.40;;;4.90;;
11135;SDS011;5622;50.840;4.948;2022-11-04T11:17:34;8.53;;;3.03;;
11135;SDS011;5622;50.840;4.948;2022-11-04T11:20:14;9.63;;;4.10;;
11135;SDS011;5622;50.840;4.948;2022-11-04T11:22:46;13.10;;;3.20;;
11135;SDS011;5622;50.840;4.948;2022-11-04T11:25:20;10.10;;;3.30;;
11135;SDS011;5622;50.840;4.948;2022-11-04T11:27:49;12.37;;;3.00;;
11135;SDS011;5622;50.840;4.948;2022-11-04T11:30:21;7.57;;;3.33;;
11135;SDS011;5622;50.840;4.948;2022-11-04T11:32:55;9.07;;;3.70;;
11135;SDS011;5622;50.840;4.948;2022-11-04T11:35:26;7.83;;;3.67;;
11135;SDS011;5622;50.840;4.948;2022-11-04T11:38:20;6.47;;;3.17;;
11135;SDS011;5622;50.840;4.948;2022-11-04T11:40:50;9.60;;;3.27;;
11135;SDS011;5622;50.840;4.948;2022-11-04T11:43:21;9.20;;;3.80;;
11135;SDS011;5622;50.840;4.948;2022-11-04T11:45:53;5.10;;;3.43;;
11135;SDS011;5622;50.840;4.948;2022-11-04T11:48:28;6.83;;;2.87;;
11135;SDS011;5622;50.840;4.948;2022-11-04T11:50:57;9.13;;;4.00;;
11135;SDS011;5622;50.840;4.948;2022-11-04T11:53:26;7.93;;;4.20;;
11135;SDS011;5622;50.840;4.948;2022-11-04T11:56:01;10.17;;;4.27;;
11135;SDS011;5622;50.840;4.948;2022-11-04T11:58:38;9.23;;;3.97;;
11135;SDS011;5622;50.840;4.948;2022-11-04T12:01:13;7.93;;;4.03;;
11135;SDS011;5622;50.840;4.948;2022-11-04T12:03:44;9.43;;;4.23;;
11135;SDS011;5622;50.840;4.948;2022-11-04T12:06:24;9.80;;;4.33;;
11135;SDS011;5622;50.840;4.948;2022-11-04T12:11:54;7.80;;;4.10;;
11135;SDS011;5622;50.840;4.948;2022-11-04T12:14:40;11.37;;;4.93;;
11135;SDS011;5622;50.840;4.948;2022-11-04T12:17:21;8.60;;;4.50;;
11135;SDS011;5622;50.840;4.948;2022-11-04T12:19:58;14.17;;;5.17;;
11135;SDS011;5622;50.840;4.948;2022-11-04T12:22:43;6.50;;;4.10;;
11135;SDS011;5622;50.840;4.948;2022-11-04T12:25:18;10.00;;;5.83;;
11135;SDS011;5622;50.840;4.948;2022-11-04T12:27:52;11.17;;;5.83;;
11135;SDS011;5622;50.840;4.948;2022-11-04T12:30:26;10.40;;;6.93;;
11135;SDS011;5622;50.840;4.948;2022-11-04T12:33:05;9.80;;;6.40;;
11135;SDS011;5622;50.840;4.948;2022-11-04T12:35:49;12.27;;;7.13;;
11135;SDS011;5622;50.840;4.948;2022-11-04T12:38:39;12.97;;;8.03;;
11135;SDS011;5622;50.840;4.948;2022-11-04T12:41:18;15.10;;;8.03;;
11135;SDS011;5622;50.840;4.948;2022-11-04T12:43:52;13.27;;;7.80;;
11135;SDS011;5622;50.840;4.948;2022-11-04T12:46:30;14.03;;;8.70;;
11135;SDS011;5622;50.840;4.948;2022-11-04T12:52:08;13.53;;;8.57;;
11135;SDS011;5622;50.840;4.948;2022-11-04T12:54:50;15.03;;;8.80;;
11135;SDS011;5622;50.840;4.948;2022-11-04T12:57:26;13.60;;;9.37;;
11135;SDS011;5622;50.840;4.948;2022-11-04T13:00:04;13.20;;;8.90;;
11135;SDS011;5622;50.840;4.948;2022-11-04T13:02:37;14.53;;;9.57;;
11135;SDS011;5622;50.840;4.948;2022-11-04T13:05:17;16.83;;;9.03;;
11135;SDS011;5622;50.840;4.948;2022-11-04T13:08:02;13.10;;;9.80;;
11135;SDS011;5622;50.840;4.948;2022-11-04T13:10:38;13.53;;;9.50;;
11135;SDS011;5622;50.840;4.948;2022-11-04T13:13:11;14.53;;;9.30;;
11135;SDS011;5622;50.840;4.948;2022-11-04T13:15:44;15.93;;;9.30;;
11135;SDS011;5622;50.840;4.948;2022-11-04T13:18:15;14.60;;;9.50;;
11135;SDS011;5622;50.840;4.948;2022-11-04T13:20:49;15.33;;;10.17;;
11135;SDS011;5622;50.840;4.948;2022-11-04T13:23:22;14.67;;;10.57;;
11135;SDS011;5622;50.840;4.948;2022-11-04T13:25:54;15.33;;;10.33;;
11135;SDS011;5622;50.840;4.948;2022-11-04T13:28:23;17.13;;;10.07;;
11135;SDS011;5622;50.840;4.948;2022-11-04T13:30:53;15.17;;;11.17;;
11135;SDS011;5622;50.840;4.948;2022-11-04T13:33:31;15.37;;;10.13;;
11135;SDS011;5622;50.840;4.948;2022-11-04T13:36:22;17.53;;;10.70;;
11135;SDS011;5622;50.840;4.948;2022-11-04T13:38:58;12.93;;;10.03;;
11135;SDS011;5622;50.840;4.948;2022-11-04T13:41:39;20.07;;;11.27;;
11135;SDS011;5622;50.840;4.948;2022-11-04T13:44:27;20.00;;;12.67;;
11135;SDS011;5622;50.840;4.948;2022-11-04T13:46:57;22.40;;;14.70;;
11135;SDS011;5622;50.840;4.948;2022-11-04T13:49:29;19.97;;;11.13;;
11135;SDS011;5622;50.840;4.948;2022-11-04T13:52:04;19.30;;;11.30;;
11135;SDS011;5622;50.840;4.948;2022-11-04T13:54:34;15.53;;;11.13;;
11135;SDS011;5622;50.840;4.948;2022-11-04T13:57:07;14.67;;;10.33;;
11135;SDS011;5622;50.840;4.948;2022-11-04T13:59:38;17.90;;;10.20;;
11135;SDS011;5622;50.840;4.948;2022-11-04T14:02:22;13.10;;;9.87;;
11135;SDS011;5622;50.840;4.948;2022-11-04T14:04:51;15.23;;;10.63;;
11135;SDS011;5622;50.840;4.948;2022-11-04T14:07:23;12.50;;;10.23;;
11135;SDS011;5622;50.840;4.948;2022-11-04T14:10:38;13.13;;;10.53;;
11135;SDS011;5622;50.840;4.948;2022-11-04T14:22:44;15.77;;;11.80;;
11135;SDS011;5622;50.840;4.948;2022-11-04T14:25:18;14.97;;;11.77;;
11135;SDS011;5622;50.840;4.948;2022-11-04T14:27:51;19.53;;;11.73;;
11135;SDS011;5622;50.840;4.948;2022-11-04T14:30:29;16.47;;;11.80;;
11135;SDS011;5622;50.840;4.948;2022-11-04T14:33:02;18.33;;;11.90;;
11135;SDS011;5622;50.840;4.948;2022-11-04T14:35:31;22.13;;;14.37;;
11135;SDS011;5622;50.840;4.948;2022-11-04T14:38:04;20.50;;;13.03;;
11135;SDS011;5622;50.840;4.948;2022-11-04T14:40:46;16.83;;;12.63;;
11135;SDS011;5622;50.840;4.948;2022-11-04T14:46:00;19.63;;;12.63;;
11135;SDS011;5622;50.840;4.948;2022-11-04T14:48:28;23.40;;;13.10;;
11135;SDS011;5622;50.840;4.948;2022-11-04T14:50:58;15.80;;;12.23;;
11135;SDS011;5622;50.840;4.948;2022-11-04T14:53:31;17.50;;;11.43;;
11135;SDS011;5622;50.840;4.948;2022-11-04T14:56:12;16.00;;;12.90;;
11135;SDS011;5622;50.840;4.948;2022-11-04T14:58:50;21.63;;;13.97;;
11135;SDS011;5622;50.840;4.948;2022-11-04T15:01:20;23.27;;;15.73;;
11135;SDS011;5622;50.840;4.948;2022-11-04T15:03:49;28.00;;;16.87;;
11135;SDS011;5622;50.840;4.948;2022-11-04T15:06:22;25.60;;;17.43;;
11135;SDS011;5622;50.840;4.948;2022-11-04T15:09:00;30.70;;;19.03;;
11135;SDS011;5622;50.840;4.948;2022-11-04T15:11:45;24.67;;;18.70;;
11135;SDS011;5622;50.840;4.948;2022-11-04T15:14:32;25.40;;;17.77;;
11135;SDS011;5622;50.840;4.948;2022-11-04T15:17:04;25.67;;;17.27;;
11135;SDS011;5622;50.840;4.948;2022-11-04T15:19:33;22.40;;;14.97;;
11135;SDS011;5622;50.840;4.948;2022-11-04T15:22:02;19.47;;;13.40;;
11135;SDS011;5622;50.840;4.948;2022-11-04T15:24:35;17.63;;;12.57;;
11135;SDS011;5622;50.840;4.948;2022-11-04T15:27:09;20.47;;;12.17;;
11135;SDS011;5622;50.840;4.948;2022-11-04T15:29:51;15.97;;;10.40;;
11135;SDS011;5622;50.840;4.948;2022-11-04T15:32:19;17.60;;;10.50;;
11135;SDS011;5622;50.840;4.948;2022-11-04T15:34:50;13.60;;;10.67;;
11135;SDS011;5622;50.840;4.948;2022-11-04T15:37:19;15.90;;;10.10;;
11135;SDS011;5622;50.840;4.948;2022-11-04T15:39:55;14.10;;;9.53;;
11135;SDS011;5622;50.840;4.948;2022-11-04T15:42:28;9.87;;;7.80;;
11135;SDS011;5622;50.840;4.948;2022-11-04T15:45:15;9.30;;;6.83;;
11135;SDS011;5622;50.840;4.948;2022-11-04T15:50:52;8.80;;;6.30;;
11135;SDS011;5622;50.840;4.948;2022-11-04T15:53:36;7.00;;;5.50;;
11135;SDS011;5622;50.840;4.948;2022-11-04T15:56:26;7.30;;;5.50;;
11135;SDS011;5622;50.840;4.948;2022-11-04T15:58:56;7.97;;;5.03;;
11135;SDS011;5622;50.840;4.948;2022-11-04T16:01:26;8.33;;;4.20;;